Arcadia, OK

7:23 AM CDT on September 23, 2014 (GMT -0500)
Blackberry Hills | Change Station
CLOSE
Current Station
Personal Weather Station
Location: Edmond, OK
Elevation: 1188 ft
Nearby Weather Stations

Elev 1188 ft 35.72 °N, 97.40 °W | Updated 16 seconds ago

Clear
Clear
56.9 °F
Feels Like 56.9 °F
N
2.7
Wind Variable Wind from SE
Gusts 4.0 mph

Today
High -- | Low -- °F
--% Chance of Precip.
Yesterday
High -- | Low -- °F
Precip. -- in
7:18 AM 7:24 PM
Waning Crescent, 1% visible
Pressure 30.18 in
Visibility 10.0 miles
Clouds Clear
Dew Point 52 °F
Humidity 83%
Rainfall 0.00 in
Snow Depth Not available.
UV 0 out of 12
Pollen 9.80 out of 12
Ozone Good
PM2.5 Good
Flu Activity Not available.
METAR KGOK 231153Z AUTO 16008KT 10SM CLR 16/11 A3019 RMK AO2 SLP218 T01560111 10167 20156 52007 $

More Conditions Fewer Conditions

Pressure 30.18 in
Visibility 10.0 miles
Clouds Clear
Dew Point 52 °F
Humidity 83%
Rainfall 0.00 in
Snow Depth Not available.
UV 0 out of 12
Pollen 9.80 out of 12
Ozone Good
PM2.5 Good
Flu Activity Not available.
METAR KGOK 231153Z AUTO 16008KT 10SM CLR 16/11 A3019 RMK AO2 SLP218 T01560111 10167 20156 52007 $

More Conditions Fewer Conditions

10-Day Weather Forecast

Almanac

Astronomy

Sep. 23, 2014 Rise Set
Actual Time 7:18 AM CDT 7:24 PM CDT
Civil Twilight 6:52 AM CDT 7:50 PM CDT
Nautical Twilight 6:22 AM CDT 8:19 PM CDT
Astronomical Twilight 5:52 AM CDT 8:49 PM CDT
Moon 6:43 AM CDT 7:04 PM CDT
Length of Visible Light 12h 57m
Length of Day
12h 06m
Tomorrow will be 2m 14s shorter.
Waning Crescent, 1% of the Moon is Illuminated
Today
Waning Crescent
Sep 24
New
Oct 1
First Quarter
Oct 8
Full
Oct 15
Last Quarter

Today's Extremes

State Highs State Lows

Community

WunderPhotos

Upload Photos

1,755,659 photos uploaded!

WunderBlogs® & News

Nearby

Air Quality

  Air Quality AQ Index Pollutant
Yesterday Good
OZONE
Yesterday Good
PM2.5
Current Good
PM2.5
Current Good
OZONE
Tuesday Good
OZONE
Tuesday Good
PM2.5
Wednesday Good
OZONE
Wednesday Good
PM2.5

Snow Depth

Station Depth Elevation
No new snow has been reported.

Earthquake Activity

City Distance Mag. Time & Date
Boley, Oklahoma 47 miles 3.4 2:58 AM CDT
2014-09-23
Medford, Oklahoma 85 miles 3.1 10:45 PM CDT
2014-09-22
Perry, Oklahoma 41 miles 2.7 7:24 PM CDT
2014-09-22
Bray, Oklahoma 76 miles 3.6 2:28 PM CDT
2014-09-22
Minimum magnitude displayed is 2.5.

Coastal Water Temperatures

Place Temperature
No Stations Reporting

Nearby Weather Stations